sensor_id;sensor_type;location;lat;lon;timestamp;temperature;humidity
45066;DHT22;30830;53.704;10.004;2023-10-09T00:00:18;10.40;99.90
45066;DHT22;30830;53.704;10.004;2023-10-09T00:02:56;10.40;99.90
45066;DHT22;30830;53.704;10.004;2023-10-09T00:05:29;10.40;99.90
45066;DHT22;30830;53.704;10.004;2023-10-09T00:08:09;10.40;99.90
45066;DHT22;30830;53.704;10.004;2023-10-09T00:10:36;10.40;99.90
45066;DHT22;30830;53.704;10.004;2023-10-09T00:13:14;10.40;99.90
45066;DHT22;30830;53.704;10.004;2023-10-09T00:15:39;10.40;99.90
45066;DHT22;30830;53.704;10.004;2023-10-09T00:18:06;10.30;99.90
45066;DHT22;30830;53.704;10.004;2023-10-09T00:20:40;10.30;99.90
45066;DHT22;30830;53.704;10.004;2023-10-09T00:23:08;10.30;99.90
45066;DHT22;30830;53.704;10.004;2023-10-09T00:25:51;10.40;99.90
45066;DHT22;30830;53.704;10.004;2023-10-09T00:28:36;10.30;99.90
45066;DHT22;30830;53.704;10.004;2023-10-09T00:31:04;10.30;99.90
45066;DHT22;30830;53.704;10.004;2023-10-09T00:33:33;10.30;99.90
45066;DHT22;30830;53.704;10.004;2023-10-09T00:36:05;10.30;99.90
45066;DHT22;30830;53.704;10.004;2023-10-09T00:38:45;10.20;99.90
45066;DHT22;30830;53.704;10.004;2023-10-09T00:41:14;10.20;99.90
45066;DHT22;30830;53.704;10.004;2023-10-09T00:43:46;10.20;99.90
45066;DHT22;30830;53.704;10.004;2023-10-09T00:46:15;10.30;99.90
45066;DHT22;30830;53.704;10.004;2023-10-09T00:48:45;10.30;99.90
45066;DHT22;30830;53.704;10.004;2023-10-09T00:51:13;10.30;99.90
45066;DHT22;30830;53.704;10.004;2023-10-09T00:53:51;10.30;99.90
45066;DHT22;30830;53.704;10.004;2023-10-09T00:56:21;10.30;99.90
45066;DHT22;30830;53.704;10.004;2023-10-09T00:58:51;10.20;99.90
45066;DHT22;30830;53.704;10.004;2023-10-09T01:01:46;10.30;99.90
45066;DHT22;30830;53.704;10.004;2023-10-09T01:04:32;10.30;99.90
45066;DHT22;30830;53.704;10.004;2023-10-09T01:07:06;10.20;99.90
45066;DHT22;30830;53.704;10.004;2023-10-09T01:09:41;10.10;99.90
45066;DHT22;30830;53.704;10.004;2023-10-09T01:12:10;10.10;99.90
45066;DHT22;30830;53.704;10.004;2023-10-09T01:14:43;10.10;99.90
45066;DHT22;30830;53.704;10.004;2023-10-09T01:17:09;10.20;99.90
45066;DHT22;30830;53.704;10.004;2023-10-09T01:19:35;10.20;99.90
45066;DHT22;30830;53.704;10.004;2023-10-09T01:22:00;10.20;99.90
45066;DHT22;30830;53.704;10.004;2023-10-09T01:24:37;10.10;99.90
45066;DHT22;30830;53.704;10.004;2023-10-09T01:27:05;10.20;99.90
45066;DHT22;30830;53.704;10.004;2023-10-09T01:29:36;10.20;99.90
45066;DHT22;30830;53.704;10.004;2023-10-09T01:32:02;10.20;99.90
45066;DHT22;30830;53.704;10.004;2023-10-09T01:34:32;10.10;99.90
45066;DHT22;30830;53.704;10.004;2023-10-09T01:37:08;10.10;99.90
45066;DHT22;30830;53.704;10.004;2023-10-09T01:39:46;10.10;99.90
45066;DHT22;30830;53.704;10.004;2023-10-09T01:42:14;10.10;99.90
45066;DHT22;30830;53.704;10.004;2023-10-09T01:44:49;10.00;99.90
45066;DHT22;30830;53.704;10.004;2023-10-09T01:47:14;10.00;99.90
45066;DHT22;30830;53.704;10.004;2023-10-09T01:49:40;10.10;99.90
45066;DHT22;30830;53.704;10.004;2023-10-09T01:52:10;10.10;99.90
45066;DHT22;30830;53.704;10.004;2023-10-09T01:54:42;10.00;99.90
45066;DHT22;30830;53.704;10.004;2023-10-09T01:57:13;10.00;99.90
45066;DHT22;30830;53.704;10.004;2023-10-09T01:59:40;10.00;99.90
45066;DHT22;30830;53.704;10.004;2023-10-09T02:02:15;9.90;99.90
45066;DHT22;30830;53.704;10.004;2023-10-09T02:04:57;9.90;99.90
45066;DHT22;30830;53.704;10.004;2023-10-09T02:07:36;10.00;99.90
45066;DHT22;30830;53.704;10.004;2023-10-09T02:10:21;10.00;99.90
45066;DHT22;30830;53.704;10.004;2023-10-09T02:12:50;10.00;99.90
45066;DHT22;30830;53.704;10.004;2023-10-09T02:21:13;9.90;99.90
45066;DHT22;30830;53.704;10.004;2023-10-09T02:23:39;9.90;99.90
45066;DHT22;30830;53.704;10.004;2023-10-09T02:26:12;9.90;99.90
45066;DHT22;30830;53.704;10.004;2023-10-09T02:28:55;9.90;99.90
45066;DHT22;30830;53.704;10.004;2023-10-09T02:31:25;9.90;99.90
45066;DHT22;30830;53.704;10.004;2023-10-09T02:33:53;9.80;99.90
45066;DHT22;30830;53.704;10.004;2023-10-09T02:36:22;9.90;99.90
45066;DHT22;30830;53.704;10.004;2023-10-09T02:38:47;9.90;99.90
45066;DHT22;30830;53.704;10.004;2023-10-09T02:41:15;9.90;99.90
45066;DHT22;30830;53.704;10.004;2023-10-09T02:43:41;9.80;99.90
45066;DHT22;30830;53.704;10.004;2023-10-09T02:46:19;9.80;99.90
45066;DHT22;30830;53.704;10.004;2023-10-09T02:48:50;9.80;99.90
45066;DHT22;30830;53.704;10.004;2023-10-09T02:51:22;9.80;99.90
45066;DHT22;30830;53.704;10.004;2023-10-09T02:53:55;9.90;99.90
45066;DHT22;30830;53.704;10.004;2023-10-09T02:56:24;9.80;99.90
45066;DHT22;30830;53.704;10.004;2023-10-09T02:58:56;9.80;99.90
45066;DHT22;30830;53.704;10.004;2023-10-09T03:01:40;9.80;99.90
45066;DHT22;30830;53.704;10.004;2023-10-09T03:04:06;9.80;99.90
45066;DHT22;30830;53.704;10.004;2023-10-09T03:06:33;9.80;99.90
45066;DHT22;30830;53.704;10.004;2023-10-09T03:09:01;9.80;99.90
45066;DHT22;30830;53.704;10.004;2023-10-09T03:11:48;9.70;99.90
45066;DHT22;30830;53.704;10.004;2023-10-09T03:14:19;9.80;99.90
45066;DHT22;30830;53.704;10.004;2023-10-09T03:16:46;9.80;99.90
45066;DHT22;30830;53.704;10.004;2023-10-09T03:19:13;9.80;99.90
45066;DHT22;30830;53.704;10.004;2023-10-09T03:21:39;9.70;99.90
45066;DHT22;30830;53.704;10.004;2023-10-09T03:24:05;9.70;99.90
45066;DHT22;30830;53.704;10.004;2023-10-09T03:26:32;9.70;99.90
45066;DHT22;30830;53.704;10.004;2023-10-09T03:28:57;9.70;99.90
45066;DHT22;30830;53.704;10.004;2023-10-09T03:31:29;9.70;99.90
45066;DHT22;30830;53.704;10.004;2023-10-09T03:33:58;9.70;99.90
45066;DHT22;30830;53.704;10.004;2023-10-09T03:36:24;9.70;99.90
45066;DHT22;30830;53.704;10.004;2023-10-09T03:38:52;9.70;99.90
45066;DHT22;30830;53.704;10.004;2023-10-09T03:41:20;9.70;99.90
45066;DHT22;30830;53.704;10.004;2023-10-09T03:43:47;9.70;99.90
45066;DHT22;30830;53.704;10.004;2023-10-09T03:46:13;9.70;99.90
45066;DHT22;30830;53.704;10.004;2023-10-09T03:48:51;9.60;99.90
45066;DHT22;30830;53.704;10.004;2023-10-09T03:51:18;9.60;99.90
45066;DHT22;30830;53.704;10.004;2023-10-09T03:53:50;9.60;99.90
45066;DHT22;30830;53.704;10.004;2023-10-09T03:56:18;9.60;99.90
45066;DHT22;30830;53.704;10.004;2023-10-09T03:58:48;9.60;99.90
45066;DHT22;30830;53.704;10.004;2023-10-09T04:01:22;9.60;99.90
45066;DHT22;30830;53.704;10.004;2023-10-09T04:03:58;9.60;99.90
45066;DHT22;30830;53.704;10.004;2023-10-09T04:06:27;9.60;99.90
45066;DHT22;30830;53.704;10.004;2023-10-09T04:09:08;9.60;99.90
45066;DHT22;30830;53.704;10.004;2023-10-09T04:11:47;9.60;99.90
45066;DHT22;30830;53.704;10.004;2023-10-09T04:14:15;9.60;99.90
45066;DHT22;30830;53.704;10.004;2023-10-09T04:16:57;9.50;99.90
45066;DHT22;30830;53.704;10.004;2023-10-09T04:19:52;9.50;99.90
45066;DHT22;30830;53.704;10.004;2023-10-09T04:22:40;9.50;99.90
45066;DHT22;30830;53.704;10.004;2023-10-09T04:25:25;9.40;99.90
45066;DHT22;30830;53.704;10.004;2023-10-09T04:27:55;9.40;99.90
45066;DHT22;30830;53.704;10.004;2023-10-09T04:30:40;9.40;99.90
45066;DHT22;30830;53.704;10.004;2023-10-09T04:33:06;9.40;99.90
45066;DHT22;30830;53.704;10.004;2023-10-09T04:35:51;9.40;99.90
45066;DHT22;30830;53.704;10.004;2023-10-09T04:38:36;9.40;99.90
45066;DHT22;30830;53.704;10.004;2023-10-09T04:41:05;9.40;99.90
45066;DHT22;30830;53.704;10.004;2023-10-09T04:43:31;9.40;99.90
45066;DHT22;30830;53.704;10.004;2023-10-09T04:45:58;9.40;99.90
45066;DHT22;30830;53.704;10.004;2023-10-09T04:48:48;9.40;99.90
45066;DHT22;30830;53.704;10.004;2023-10-09T04:51:17;9.30;99.90
45066;DHT22;30830;53.704;10.004;2023-10-09T04:53:47;9.40;99.90
45066;DHT22;30830;53.704;10.004;2023-10-09T04:56:20;9.40;99.90
45066;DHT22;30830;53.704;10.004;2023-10-09T04:58:49;9.40;99.90
45066;DHT22;30830;53.704;10.004;2023-10-09T05:01:28;9.40;99.90
45066;DHT22;30830;53.704;10.004;2023-10-09T05:04:02;9.40;99.90
45066;DHT22;30830;53.704;10.004;2023-10-09T05:06:29;9.40;99.90
45066;DHT22;30830;53.704;10.004;2023-10-09T05:09:08;9.40;99.90
45066;DHT22;30830;53.704;10.004;2023-10-09T05:11:35;9.40;99.90
45066;DHT22;30830;53.704;10.004;2023-10-09T05:14:22;9.40;99.90
45066;DHT22;30830;53.704;10.004;2023-10-09T05:17:05;9.40;99.90
45066;DHT22;30830;53.704;10.004;2023-10-09T05:19:32;9.40;99.90
45066;DHT22;30830;53.704;10.004;2023-10-09T05:22:16;9.40;99.90
45066;DHT22;30830;53.704;10.004;2023-10-09T05:25:00;9.40;99.90
45066;DHT22;30830;53.704;10.004;2023-10-09T05:27:26;9.40;99.90
45066;DHT22;30830;53.704;10.004;2023-10-09T05:30:12;9.40;99.90
45066;DHT22;30830;53.704;10.004;2023-10-09T05:32:56;9.40;99.90
45066;DHT22;30830;53.704;10.004;2023-10-09T05:35:30;9.40;99.90
45066;DHT22;30830;53.704;10.004;2023-10-09T05:38:08;9.40;99.90
45066;DHT22;30830;53.704;10.004;2023-10-09T05:40:51;9.40;99.90
45066;DHT22;30830;53.704;10.004;2023-10-09T05:43:20;9.40;99.90
45066;DHT22;30830;53.704;10.004;2023-10-09T05:46:04;9.40;99.90
45066;DHT22;30830;53.704;10.004;2023-10-09T05:48:33;9.30;99.90
45066;DHT22;30830;53.704;10.004;2023-10-09T05:51:19;9.30;99.90
45066;DHT22;30830;53.704;10.004;2023-10-09T05:54:03;9.30;99.90
45066;DHT22;30830;53.704;10.004;2023-10-09T05:56:49;9.30;99.90
45066;DHT22;30830;53.704;10.004;2023-10-09T05:59:33;9.30;99.90
45066;DHT22;30830;53.704;10.004;2023-10-09T06:02:17;9.30;99.90
45066;DHT22;30830;53.704;10.004;2023-10-09T06:05:03;9.30;99.90
45066;DHT22;30830;53.704;10.004;2023-10-09T06:07:44;9.30;99.90
45066;DHT22;30830;53.704;10.004;2023-10-09T06:10:29;9.30;99.90
45066;DHT22;30830;53.704;10.004;2023-10-09T06:13:05;9.30;99.90
45066;DHT22;30830;53.704;10.004;2023-10-09T06:15:37;9.30;99.90
45066;DHT22;30830;53.704;10.004;2023-10-09T06:18:09;9.30;99.90
45066;DHT22;30830;53.704;10.004;2023-10-09T06:20:58;9.30;99.90
45066;DHT22;30830;53.704;10.004;2023-10-09T06:23:56;9.30;99.90
45066;DHT22;30830;53.704;10.004;2023-10-09T06:26:39;9.30;99.90
45066;DHT22;30830;53.704;10.004;2023-10-09T06:29:16;9.30;99.90
45066;DHT22;30830;53.704;10.004;2023-10-09T06:31:59;9.30;99.90
45066;DHT22;30830;53.704;10.004;2023-10-09T06:34:41;9.20;99.90
45066;DHT22;30830;53.704;10.004;2023-10-09T06:37:10;9.20;99.90
45066;DHT22;30830;53.704;10.004;2023-10-09T06:40:00;9.30;99.90
45066;DHT22;30830;53.704;10.004;2023-10-09T06:42:55;9.30;99.90
45066;DHT22;30830;53.704;10.004;2023-10-09T06:45:21;9.20;99.90
45066;DHT22;30830;53.704;10.004;2023-10-09T06:47:48;9.30;99.90
45066;DHT22;30830;53.704;10.004;2023-10-09T06:50:35;9.30;99.90
45066;DHT22;30830;53.704;10.004;2023-10-09T06:53:19;9.30;99.90
45066;DHT22;30830;53.704;10.004;2023-10-09T06:55:45;9.30;99.90
45066;DHT22;30830;53.704;10.004;2023-10-09T06:58:18;9.30;99.90
45066;DHT22;30830;53.704;10.004;2023-10-09T07:00:54;9.30;99.90
45066;DHT22;30830;53.704;10.004;2023-10-09T07:03:38;9.30;99.90
45066;DHT22;30830;53.704;10.004;2023-10-09T07:06:18;9.30;99.90
45066;DHT22;30830;53.704;10.004;2023-10-09T07:08:50;9.30;99.90
45066;DHT22;30830;53.704;10.004;2023-10-09T07:11:41;9.30;99.90
45066;DHT22;30830;53.704;10.004;2023-10-09T07:14:15;9.30;99.90
45066;DHT22;30830;53.704;10.004;2023-10-09T07:17:05;9.30;99.90
45066;DHT22;30830;53.704;10.004;2023-10-09T07:19:50;9.30;99.90
45066;DHT22;30830;53.704;10.004;2023-10-09T07:22:16;9.30;99.90
45066;DHT22;30830;53.704;10.004;2023-10-09T07:24:54;9.30;99.90
45066;DHT22;30830;53.704;10.004;2023-10-09T07:27:29;9.40;99.90
45066;DHT22;30830;53.704;10.004;2023-10-09T07:30:21;9.40;99.90
45066;DHT22;30830;53.704;10.004;2023-10-09T07:33:00;9.40;99.90
45066;DHT22;30830;53.704;10.004;2023-10-09T07:35:48;9.40;99.90
45066;DHT22;30830;53.704;10.004;2023-10-09T07:38:21;9.40;99.90
45066;DHT22;30830;53.704;10.004;2023-10-09T07:40:55;9.40;99.90
45066;DHT22;30830;53.704;10.004;2023-10-09T07:43:22;9.40;99.90
45066;DHT22;30830;53.704;10.004;2023-10-09T07:45:54;9.50;99.90
45066;DHT22;30830;53.704;10.004;2023-10-09T07:48:23;9.50;99.90
45066;DHT22;30830;53.704;10.004;2023-10-09T07:50:52;9.60;99.90
45066;DHT22;30830;53.704;10.004;2023-10-09T07:53:23;9.60;99.90
45066;DHT22;30830;53.704;10.004;2023-10-09T07:55:52;9.60;99.90
45066;DHT22;30830;53.704;10.004;2023-10-09T07:58:31;9.60;99.90
45066;DHT22;30830;53.704;10.004;2023-10-09T08:00:58;9.60;99.90
45066;DHT22;30830;53.704;10.004;2023-10-09T08:03:36;9.60;99.90
45066;DHT22;30830;53.704;10.004;2023-10-09T08:06:02;9.60;99.90
45066;DHT22;30830;53.704;10.004;2023-10-09T08:08:46;9.60;99.90
45066;DHT22;30830;53.704;10.004;2023-10-09T08:11:45;9.60;99.90
45066;DHT22;30830;53.704;10.004;2023-10-09T08:14:11;9.60;99.90
45066;DHT22;30830;53.704;10.004;2023-10-09T08:16:56;9.60;99.90
45066;DHT22;30830;53.704;10.004;2023-10-09T08:19:50;9.60;99.90
45066;DHT22;30830;53.704;10.004;2023-10-09T08:22:29;9.60;99.90
45066;DHT22;30830;53.704;10.004;2023-10-09T08:24:55;9.60;99.90
45066;DHT22;30830;53.704;10.004;2023-10-09T08:27:25;9.60;99.90
45066;DHT22;30830;53.704;10.004;2023-10-09T08:30:12;9.60;99.90
45066;DHT22;30830;53.704;10.004;2023-10-09T08:32:47;9.60;99.90
45066;DHT22;30830;53.704;10.004;2023-10-09T08:35:52;9.60;99.90
45066;DHT22;30830;53.704;10.004;2023-10-09T08:38:21;9.60;99.90
45066;DHT22;30830;53.704;10.004;2023-10-09T08:40:51;9.60;99.90
45066;DHT22;30830;53.704;10.004;2023-10-09T08:43:20;9.70;99.90
45066;DHT22;30830;53.704;10.004;2023-10-09T08:45:48;9.70;99.90
45066;DHT22;30830;53.704;10.004;2023-10-09T08:48:14;9.70;99.90
45066;DHT22;30830;53.704;10.004;2023-10-09T08:50:48;9.80;99.90
45066;DHT22;30830;53.704;10.004;2023-10-09T08:53:15;9.80;99.90
45066;DHT22;30830;53.704;10.004;2023-10-09T08:55:42;9.80;99.90
45066;DHT22;30830;53.704;10.004;2023-10-09T08:58:09;9.80;99.90
45066;DHT22;30830;53.704;10.004;2023-10-09T09:01:07;9.90;99.90
45066;DHT22;30830;53.704;10.004;2023-10-09T09:03:40;9.90;99.90
45066;DHT22;30830;53.704;10.004;2023-10-09T09:06:06;10.00;99.90
45066;DHT22;30830;53.704;10.004;2023-10-09T09:08:33;10.00;99.90
45066;DHT22;30830;53.704;10.004;2023-10-09T09:11:04;10.00;99.90
45066;DHT22;30830;53.704;10.004;2023-10-09T09:13:46;10.00;99.90
45066;DHT22;30830;53.704;10.004;2023-10-09T09:16:23;10.00;99.90
45066;DHT22;30830;53.704;10.004;2023-10-09T09:21:27;10.10;99.90
45066;DHT22;30830;53.704;10.004;2023-10-09T09:23:58;10.00;99.90
45066;DHT22;30830;53.704;10.004;2023-10-09T09:26:39;10.10;99.90
45066;DHT22;30830;53.704;10.004;2023-10-09T09:29:11;10.10;99.90
45066;DHT22;30830;53.704;10.004;2023-10-09T09:31:37;10.10;99.90
45066;DHT22;30830;53.704;10.004;2023-10-09T09:34:07;10.10;99.90
45066;DHT22;30830;53.704;10.004;2023-10-09T09:36:58;10.10;99.90
45066;DHT22;30830;53.704;10.004;2023-10-09T09:39:27;10.20;99.90
45066;DHT22;30830;53.704;10.004;2023-10-09T09:41:59;10.20;99.90
45066;DHT22;30830;53.704;10.004;2023-10-09T09:44:33;10.20;99.90
45066;DHT22;30830;53.704;10.004;2023-10-09T09:47:09;10.30;99.90
45066;DHT22;30830;53.704;10.004;2023-10-09T09:49:41;10.30;99.90
45066;DHT22;30830;53.704;10.004;2023-10-09T09:52:07;10.30;99.90
45066;DHT22;30830;53.704;10.004;2023-10-09T09:54:38;10.40;99.90
45066;DHT22;30830;53.704;10.004;2023-10-09T09:57:04;10.40;99.90
45066;DHT22;30830;53.704;10.004;2023-10-09T09:59:42;10.40;99.90
45066;DHT22;30830;53.704;10.004;2023-10-09T10:02:24;10.40;99.90
45066;DHT22;30830;53.704;10.004;2023-10-09T10:04:57;10.40;99.90
45066;DHT22;30830;53.704;10.004;2023-10-09T10:07:25;10.50;99.90
45066;DHT22;30830;53.704;10.004;2023-10-09T10:09:53;10.50;99.90
45066;DHT22;30830;53.704;10.004;2023-10-09T10:13:01;10.50;99.90
45066;DHT22;30830;53.704;10.004;2023-10-09T10:15:58;10.60;99.90
45066;DHT22;30830;53.704;10.004;2023-10-09T10:18:24;10.60;99.90
45066;DHT22;30830;53.704;10.004;2023-10-09T10:23:39;10.70;99.90
45066;DHT22;30830;53.704;10.004;2023-10-09T10:26:22;10.70;99.90
45066;DHT22;30830;53.704;10.004;2023-10-09T10:29:18;10.70;99.90
45066;DHT22;30830;53.704;10.004;2023-10-09T10:32:00;10.80;99.90
45066;DHT22;30830;53.704;10.004;2023-10-09T10:40:10;10.80;99.90
45066;DHT22;30830;53.704;10.004;2023-10-09T10:43:01;10.80;99.90
45066;DHT22;30830;53.704;10.004;2023-10-09T10:45:39;10.90;99.90
45066;DHT22;30830;53.704;10.004;2023-10-09T10:48:11;10.90;99.90
45066;DHT22;30830;53.704;10.004;2023-10-09T10:50:49;10.90;99.90
45066;DHT22;30830;53.704;10.004;2023-10-09T10:53:22;10.90;99.90
45066;DHT22;30830;53.704;10.004;2023-10-09T10:55:59;10.90;99.90
45066;DHT22;30830;53.704;10.004;2023-10-09T10:58:52;10.90;99.90
45066;DHT22;30830;53.704;10.004;2023-10-09T11:01:30;10.90;99.90
45066;DHT22;30830;53.704;10.004;2023-10-09T11:04:16;10.90;99.90
45066;DHT22;30830;53.704;10.004;2023-10-09T11:06:51;10.90;99.90
45066;DHT22;30830;53.704;10.004;2023-10-09T11:09:17;10.90;99.90
45066;DHT22;30830;53.704;10.004;2023-10-09T11:11:52;10.90;99.90
45066;DHT22;30830;53.704;10.004;2023-10-09T11:14:48;10.90;99.90
45066;DHT22;30830;53.704;10.004;2023-10-09T11:17:37;10.90;99.90
45066;DHT22;30830;53.704;10.004;2023-10-09T11:20:05;10.90;99.90
45066;DHT22;30830;53.704;10.004;2023-10-09T11:22:52;10.90;99.90
45066;DHT22;30830;53.704;10.004;2023-10-09T11:25:40;10.90;99.90
45066;DHT22;30830;53.704;10.004;2023-10-09T11:28:26;11.00;99.90
45066;DHT22;30830;53.704;10.004;2023-10-09T11:31:11;11.00;99.90
45066;DHT22;30830;53.704;10.004;2023-10-09T11:33:47;10.90;99.90
45066;DHT22;30830;53.704;10.004;2023-10-09T11:36:21;11.00;99.90
45066;DHT22;30830;53.704;10.004;2023-10-09T11:38:59;11.00;99.90
45066;DHT22;30830;53.704;10.004;2023-10-09T11:41:45;11.00;99.90
45066;DHT22;30830;53.704;10.004;2023-10-09T11:44:15;11.10;99.90
45066;DHT22;30830;53.704;10.004;2023-10-09T11:46:58;11.10;99.90
45066;DHT22;30830;53.704;10.004;2023-10-09T11:49:54;11.20;99.90
45066;DHT22;30830;53.704;10.004;2023-10-09T11:52:26;11.20;99.90
45066;DHT22;30830;53.704;10.004;2023-10-09T11:55:00;11.30;99.90
45066;DHT22;30830;53.704;10.004;2023-10-09T11:57:26;11.30;99.90
45066;DHT22;30830;53.704;10.004;2023-10-09T12:00:04;11.40;99.90
45066;DHT22;30830;53.704;10.004;2023-10-09T12:02:36;11.40;99.90
45066;DHT22;30830;53.704;10.004;2023-10-09T12:05:10;11.50;99.90
45066;DHT22;30830;53.704;10.004;2023-10-09T12:07:43;11.50;99.90
45066;DHT22;30830;53.704;10.004;2023-10-09T12:10:09;11.60;99.90
45066;DHT22;30830;53.704;10.004;2023-10-09T12:12:35;11.60;99.90
45066;DHT22;30830;53.704;10.004;2023-10-09T12:15:01;11.60;99.90
45066;DHT22;30830;53.704;10.004;2023-10-09T12:17:30;11.70;99.90
45066;DHT22;30830;53.704;10.004;2023-10-09T12:19:58;11.70;99.90
45066;DHT22;30830;53.704;10.004;2023-10-09T12:22:24;11.70;99.90
45066;DHT22;30830;53.704;10.004;2023-10-09T12:24:52;11.70;99.90
45066;DHT22;30830;53.704;10.004;2023-10-09T12:27:19;11.70;99.90
45066;DHT22;30830;53.704;10.004;2023-10-09T12:29:45;11.70;99.90
45066;DHT22;30830;53.704;10.004;2023-10-09T12:32:11;11.70;99.90
45066;DHT22;30830;53.704;10.004;2023-10-09T12:34:38;11.70;99.90
45066;DHT22;30830;53.704;10.004;2023-10-09T12:37:04;11.70;99.90
45066;DHT22;30830;53.704;10.004;2023-10-09T12:39:29;11.70;99.90
45066;DHT22;30830;53.704;10.004;2023-10-09T12:41:59;11.70;99.90
45066;DHT22;30830;53.704;10.004;2023-10-09T12:44:35;11.70;99.90
45066;DHT22;30830;53.704;10.004;2023-10-09T12:47:08;11.70;99.90
45066;DHT22;30830;53.704;10.004;2023-10-09T12:49:37;11.80;99.90
45066;DHT22;30830;53.704;10.004;2023-10-09T12:52:09;11.80;99.90
45066;DHT22;30830;53.704;10.004;2023-10-09T12:54:44;11.80;99.90
45066;DHT22;30830;53.704;10.004;2023-10-09T12:57:13;11.80;99.90
45066;DHT22;30830;53.704;10.004;2023-10-09T12:59:41;11.90;99.90
45066;DHT22;30830;53.704;10.004;2023-10-09T13:02:14;11.90;99.90
45066;DHT22;30830;53.704;10.004;2023-10-09T13:04:54;11.90;99.90
45066;DHT22;30830;53.704;10.004;2023-10-09T13:07:19;12.00;99.90
45066;DHT22;30830;53.704;10.004;2023-10-09T13:09:47;12.00;99.90
45066;DHT22;30830;53.704;10.004;2023-10-09T13:12:34;12.10;99.90
45066;DHT22;30830;53.704;10.004;2023-10-09T13:14:59;12.10;99.90
45066;DHT22;30830;53.704;10.004;2023-10-09T13:17:25;12.10;99.90
45066;DHT22;30830;53.704;10.004;2023-10-09T13:19:53;12.10;99.90
45066;DHT22;30830;53.704;10.004;2023-10-09T13:22:20;12.20;99.90
45066;DHT22;30830;53.704;10.004;2023-10-09T13:24:46;12.20;99.90
45066;DHT22;30830;53.704;10.004;2023-10-09T13:27:13;12.20;99.90
45066;DHT22;30830;53.704;10.004;2023-10-09T13:29:47;12.30;99.90
45066;DHT22;30830;53.704;10.004;2023-10-09T13:32:13;12.30;99.90
45066;DHT22;30830;53.704;10.004;2023-10-09T13:34:40;12.30;99.90
45066;DHT22;30830;53.704;10.004;2023-10-09T13:37:11;12.40;99.90
45066;DHT22;30830;53.704;10.004;2023-10-09T13:39:39;12.40;99.90
45066;DHT22;30830;53.704;10.004;2023-10-09T13:42:17;12.40;99.90
45066;DHT22;30830;53.704;10.004;2023-10-09T13:44:43;12.50;99.90
45066;DHT22;30830;53.704;10.004;2023-10-09T13:47:09;12.50;99.90
45066;DHT22;30830;53.704;10.004;2023-10-09T13:49:44;12.50;99.90
45066;DHT22;30830;53.704;10.004;2023-10-09T13:52:10;12.60;99.90
45066;DHT22;30830;53.704;10.004;2023-10-09T13:54:35;12.60;99.90
45066;DHT22;30830;53.704;10.004;2023-10-09T13:57:03;12.60;99.90
45066;DHT22;30830;53.704;10.004;2023-10-09T13:59:33;12.70;99.90
45066;DHT22;30830;53.704;10.004;2023-10-09T14:02:00;12.70;99.90
45066;DHT22;30830;53.704;10.004;2023-10-09T14:04:28;12.70;99.90
45066;DHT22;30830;53.704;10.004;2023-10-09T14:06:53;12.70;99.90
45066;DHT22;30830;53.704;10.004;2023-10-09T14:09:23;12.70;99.90
45066;DHT22;30830;53.704;10.004;2023-10-09T14:12:03;12.70;99.90
45066;DHT22;30830;53.704;10.004;2023-10-09T14:14:45;12.70;99.90
45066;DHT22;30830;53.704;10.004;2023-10-09T14:17:18;12.70;99.90
45066;DHT22;30830;53.704;10.004;2023-10-09T14:19:49;12.60;99.90
45066;DHT22;30830;53.704;10.004;2023-10-09T14:22:34;12.60;99.90
45066;DHT22;30830;53.704;10.004;2023-10-09T14:25:03;12.60;99.90
45066;DHT22;30830;53.704;10.004;2023-10-09T14:27:38;12.60;99.90
45066;DHT22;30830;53.704;10.004;2023-10-09T14:30:04;12.70;99.90
45066;DHT22;30830;53.704;10.004;2023-10-09T14:32:38;12.70;99.90
45066;DHT22;30830;53.704;10.004;2023-10-09T14:35:09;12.70;99.90
45066;DHT22;30830;53.704;10.004;2023-10-09T14:37:40;12.70;99.90
45066;DHT22;30830;53.704;10.004;2023-10-09T14:40:07;12.70;99.90
45066;DHT22;30830;53.704;10.004;2023-10-09T14:42:39;12.70;99.90
45066;DHT22;30830;53.704;10.004;2023-10-09T14:45:09;12.70;99.90
45066;DHT22;30830;53.704;10.004;2023-10-09T14:47:41;12.70;99.90
45066;DHT22;30830;53.704;10.004;2023-10-09T14:50:07;12.70;99.90
45066;DHT22;30830;53.704;10.004;2023-10-09T14:52:34;12.70;99.90
45066;DHT22;30830;53.704;10.004;2023-10-09T14:55:04;12.70;99.90
45066;DHT22;30830;53.704;10.004;2023-10-09T14:57:30;12.70;99.90
45066;DHT22;30830;53.704;10.004;2023-10-09T14:59:59;12.70;99.90
45066;DHT22;30830;53.704;10.004;2023-10-09T15:02:25;12.70;99.90
45066;DHT22;30830;53.704;10.004;2023-10-09T15:04:50;12.70;99.90
45066;DHT22;30830;53.704;10.004;2023-10-09T15:07:18;12.70;99.90
45066;DHT22;30830;53.704;10.004;2023-10-09T15:09:46;12.70;99.90
45066;DHT22;30830;53.704;10.004;2023-10-09T15:12:11;12.70;99.90
45066;DHT22;30830;53.704;10.004;2023-10-09T15:14:37;12.70;99.90
45066;DHT22;30830;53.704;10.004;2023-10-09T15:17:04;12.70;99.90
45066;DHT22;30830;53.704;10.004;2023-10-09T15:19:32;12.80;99.90
45066;DHT22;30830;53.704;10.004;2023-10-09T15:21:58;12.80;99.90
45066;DHT22;30830;53.704;10.004;2023-10-09T15:24:24;12.80;99.90
45066;DHT22;30830;53.704;10.004;2023-10-09T15:26:51;12.80;99.90
45066;DHT22;30830;53.704;10.004;2023-10-09T15:29:23;12.80;99.90
45066;DHT22;30830;53.704;10.004;2023-10-09T15:31:55;12.80;99.90
45066;DHT22;30830;53.704;10.004;2023-10-09T15:34:20;12.80;99.90
45066;DHT22;30830;53.704;10.004;2023-10-09T15:36:47;12.80;99.90
45066;DHT22;30830;53.704;10.004;2023-10-09T15:39:16;12.80;99.90
45066;DHT22;30830;53.704;10.004;2023-10-09T15:41:48;12.80;99.90
45066;DHT22;30830;53.704;10.004;2023-10-09T15:44:14;12.90;99.90
45066;DHT22;30830;53.704;10.004;2023-10-09T15:46:40;12.80;99.90
45066;DHT22;30830;53.704;10.004;2023-10-09T15:49:05;12.90;99.90
45066;DHT22;30830;53.704;10.004;2023-10-09T15:51:34;12.90;99.90
45066;DHT22;30830;53.704;10.004;2023-10-09T15:54:00;12.90;99.90
45066;DHT22;30830;53.704;10.004;2023-10-09T15:56:26;12.90;99.90
45066;DHT22;30830;53.704;10.004;2023-10-09T15:58:52;12.90;99.90
45066;DHT22;30830;53.704;10.004;2023-10-09T16:01:19;12.90;99.90
45066;DHT22;30830;53.704;10.004;2023-10-09T16:03:46;12.90;99.90
45066;DHT22;30830;53.704;10.004;2023-10-09T16:06:17;12.90;99.90
45066;DHT22;30830;53.704;10.004;2023-10-09T16:08:45;12.90;99.90
45066;DHT22;30830;53.704;10.004;2023-10-09T16:11:20;12.90;99.90
45066;DHT22;30830;53.704;10.004;2023-10-09T16:13:50;12.90;99.90
45066;DHT22;30830;53.704;10.004;2023-10-09T16:16:27;12.90;99.90
45066;DHT22;30830;53.704;10.004;2023-10-09T16:18:54;12.90;99.90